Antofagasta, Chile

1:13 PM CLT on July 30, 2014 (GMT -0400)
Cerro Moreno International (SCFA) Elev 394 ft | 23.45 °S, 70.44 °W | Change Station

Current weather conditions updated 13 minutes ago

Clear
Clear
61 °F
Feels Like 61 °F
N
8
Wind Variable Wind from SSW

Today is forecast to be Much Warmer than yesterday.

Today
High -- | Low -- °F
--% Chance of Precip.
Yesterday
High -- | Low -- °F
Precip. -- in
7:17 AM 6:19 PM
Waxing Crescent, 12% visible
Pressure 30.01 in
Visibility -9999.0 miles
Clouds
Dew Point 46 °F
Humidity 59%
Rainfall 0.00 in
Snow Depth Not available.
UV Not available.
Pollen Not available.
Air Quality Not available.
Flu Activity Not available.
METAR SCFA 301700Z 20007KT CAVOK 16/08 Q1016 NOSIG

More Conditions Fewer Conditions

Pressure 30.01 in
Visibility -9999.0 miles
Clouds
Dew Point 46 °F
Humidity 59%
Rainfall 0.00 in
Snow Depth Not available.
UV Not available.
Pollen Not available.
Air Quality Not available.
Flu Activity Not available.
METAR SCFA 301700Z 20007KT CAVOK 16/08 Q1016 NOSIG

More Conditions Fewer Conditions

10-Day Weather Forecast

Almanac

Astronomy

Jul. 30, 2014 Rise Set
Actual Time 7:17 AM CLT 6:19 PM CLT
Civil Twilight 6:53 AM CLT 6:42 PM CLT
Nautical Twilight 6:26 AM CLT 7:10 PM CLT
Astronomical Twilight 5:59 AM CLT 7:36 PM CLT
Moon 9:20 AM CLT 9:35 PM CLT
Length of Visible Light 11h 48m
Length of Day
11h 01m
Tomorrow will be 0m 57s longer.
Waxing Crescent, 12% of the Moon is Illuminated
Today
Waxing Crescent
Aug 3
First Quarter
Aug 10
Full
Aug 17
Last Quarter
Aug 25
New

Today's Extremes

Country Highs Country Lows

Community

WunderPhotos

Upload Photos

1,739,139 photos uploaded!

WunderBlogs® & News

Nearby

Snow Depth

Not available.

Earthquake Activity

City Distance Mag. Time & Date
No recent earthquake activity has been reported nearby.
Minimum magnitude displayed is 2.5.

Coastal Water Temperatures

Place Temperature
No Stations Reporting

Nearby Weather Stations

There are no personal weather stations in this area.